createdAt,value
2023-04-08T00:01:45.986Z,99468.66
2023-04-08T00:04:15.096Z,99464.28
2023-04-08T00:06:45.248Z,99465.13
2023-04-08T00:09:14.065Z,99457.28
2023-04-08T00:11:42.728Z,99462.53
2023-04-08T00:14:11.647Z,99456.38
2023-04-08T00:16:40.488Z,99465.97
2023-04-08T00:19:09.426Z,99454.63
2023-04-08T00:21:37.977Z,99471.16
2023-04-08T00:24:08.513Z,99466.78
2023-04-08T00:26:37.742Z,99472.84
2023-04-08T00:29:06.655Z,99472.00
2023-04-08T00:31:35.391Z,99470.28
2023-04-08T00:34:04.256Z,99473.69
2023-04-08T00:36:33.824Z,99476.31
2023-04-08T00:39:04.328Z,99475.41
2023-04-08T00:41:35.448Z,99471.00
2023-04-08T00:44:04.410Z,99477.09
2023-04-08T00:46:38.114Z,99466.63
2023-04-08T00:49:08.074Z,99470.16
2023-04-08T00:51:37.457Z,99460.53
2023-04-08T00:54:06.543Z,99465.78
2023-04-08T00:56:37.935Z,99466.63
2023-04-08T00:59:07.336Z,99459.69
2023-04-08T01:01:44.651Z,99466.56
2023-04-08T01:04:29.058Z,99453.47
2023-04-08T01:07:05.200Z,99455.25
2023-04-08T01:09:36.960Z,99445.72
2023-04-08T01:12:10.814Z,99444.75
2023-04-08T01:14:43.713Z,99457.00
2023-04-08T01:17:12.463Z,99451.88
2023-04-08T01:19:44.946Z,99451.91
2023-04-08T01:22:20.960Z,99453.63
2023-04-08T01:24:53.770Z,99456.25
2023-04-08T01:27:23.997Z,99461.53
2023-04-08T01:29:54.415Z,99457.16
2023-04-08T01:32:23.698Z,99456.31
2023-04-08T01:34:53.656Z,99452.81
2023-04-08T01:37:24.605Z,99451.91
2023-04-08T01:39:57.676Z,99454.59
2023-04-08T01:42:29.391Z,99451.28
2023-04-08T01:45:00.514Z,99453.97
2023-04-08T01:47:30.462Z,99454.03
2023-04-08T01:50:01.083Z,99456.63
2023-04-08T01:52:31.558Z,99461.00
2023-04-08T01:55:00.993Z,99458.34
2023-04-08T01:57:35.233Z,99460.16
2023-04-08T02:00:08.820Z,99459.44
2023-04-08T02:02:51.507Z,99454.31
2023-04-08T02:05:21.411Z,99463.03
2023-04-08T02:07:50.338Z,99464.72
2023-04-08T02:10:19.220Z,99463.84
2023-04-08T02:12:49.745Z,99473.41
2023-04-08T02:15:18.928Z,99468.22
2023-04-08T02:17:51.214Z,99453.47
2023-04-08T02:20:25.136Z,99464.72
2023-04-08T02:23:00.956Z,99447.22
2023-04-08T02:25:32.065Z,99452.38
2023-04-08T02:28:05.825Z,99455.75
2023-04-08T02:30:37.014Z,99457.44
2023-04-08T02:33:06.408Z,99451.31
2023-04-08T02:35:36.111Z,99452.13
2023-04-08T02:38:04.753Z,99445.94
2023-04-08T02:40:35.554Z,99450.31
2023-04-08T02:43:07.407Z,99447.66
2023-04-08T02:45:40.741Z,99449.41
2023-04-08T02:48:11.034Z,99455.53
2023-04-08T02:50:40.729Z,99446.84
2023-04-08T02:53:10.389Z,99457.31
2023-04-08T02:55:40.332Z,99452.94
2023-04-08T02:58:10.218Z,99449.41
2023-04-08T03:00:40.062Z,99454.56
2023-04-08T03:03:08.747Z,99456.31
2023-04-08T03:05:37.780Z,99456.28
2023-04-08T03:08:06.886Z,99445.78
2023-04-08T03:10:35.789Z,99455.34
2023-04-08T03:13:04.384Z,99452.84
2023-04-08T03:15:34.609Z,99458.88
2023-04-08T03:18:03.566Z,99457.16
2023-04-08T03:20:32.587Z,99455.38
2023-04-08T03:23:01.142Z,99465.25
2023-04-08T03:25:30.241Z,99461.16
2023-04-08T03:27:59.783Z,99469.13
2023-04-08T03:30:29.084Z,99465.63
2023-04-08T03:32:59.080Z,99476.91
2023-04-08T03:35:28.463Z,99480.31
2023-04-08T03:37:58.352Z,99476.91
2023-04-08T03:40:27.442Z,99482.16
2023-04-08T03:42:56.055Z,99471.69
2023-04-08T03:45:25.563Z,99472.56
2023-04-08T03:47:54.194Z,99480.34
2023-04-08T03:50:24.770Z,99482.94
2023-04-08T03:52:53.298Z,99487.28
2023-04-08T03:55:22.317Z,99488.09
2023-04-08T03:57:51.073Z,99490.69
2023-04-08T04:00:19.931Z,99493.38
2023-04-08T04:02:48.551Z,99498.59
2023-04-08T04:05:17.644Z,99496.84
2023-04-08T04:07:47.550Z,99507.22
2023-04-08T04:10:16.614Z,99500.19
2023-04-08T04:12:46.209Z,99498.38
2023-04-08T04:15:15.132Z,99498.34
2023-04-08T04:17:43.659Z,99497.41
2023-04-08T04:20:13.504Z,99495.63
2023-04-08T04:22:42.140Z,99495.56
2023-04-08T04:25:12.445Z,99496.38
2023-04-08T04:27:41.061Z,99503.34
2023-04-08T04:30:10.625Z,99505.06
2023-04-08T04:32:39.413Z,99508.50
2023-04-08T04:35:08.791Z,99521.56
2023-04-08T04:37:37.620Z,99510.22
2023-04-08T04:40:07.843Z,99516.34
2023-04-08T04:42:37.956Z,99518.00
2023-04-08T04:45:07.863Z,99520.66
2023-04-08T04:47:36.596Z,99522.41
2023-04-08T04:50:06.833Z,99527.59
2023-04-08T04:52:37.417Z,99528.41
2023-04-08T04:55:07.130Z,99530.16
2023-04-08T04:57:37.031Z,99533.63
2023-04-08T05:00:06.746Z,99531.91
2023-04-08T05:02:35.559Z,99532.72
2023-04-08T05:05:04.740Z,99534.47
2023-04-08T05:07:33.367Z,99533.66
2023-04-08T05:10:02.332Z,99533.66
2023-04-08T05:12:31.104Z,99540.56
2023-04-08T05:15:02.277Z,99534.47
2023-04-08T05:17:30.947Z,99538.00
2023-04-08T05:19:59.945Z,99534.47
2023-04-08T05:22:28.481Z,99535.38
2023-04-08T05:24:57.374Z,99537.09
2023-04-08T05:27:26.327Z,99543.09
2023-04-08T05:29:55.136Z,99544.78
2023-04-08T05:32:25.114Z,99536.09
2023-04-08T05:34:54.027Z,99548.25
2023-04-08T05:37:22.812Z,99540.34
2023-04-08T05:39:51.671Z,99543.03
2023-04-08T05:42:20.320Z,99542.13
2023-04-08T05:44:49.318Z,99539.44
2023-04-08T05:47:17.838Z,99544.66
2023-04-08T05:49:49.632Z,99553.34
2023-04-08T05:52:19.762Z,99551.59
2023-04-08T05:54:48.779Z,99550.66
2023-04-08T05:57:17.930Z,99550.59
2023-04-08T05:59:46.910Z,99547.91
2023-04-08T06:02:15.732Z,99556.59
2023-04-08T06:04:44.980Z,99553.88
2023-04-08T06:07:15.005Z,99552.88
2023-04-08T06:09:45.297Z,99552.94
2023-04-08T06:12:14.132Z,99545.94
2023-04-08T06:14:43.035Z,99556.41
2023-04-08T06:17:11.884Z,99550.19
2023-04-08T06:19:40.918Z,99543.25
2023-04-08T06:22:09.607Z,99553.59
2023-04-08T06:24:40.207Z,99548.38
2023-04-08T06:27:09.392Z,99546.56
2023-04-08T06:29:39.051Z,99550.09
2023-04-08T06:32:08.968Z,99550.06
2023-04-08T06:34:38.136Z,99554.31
2023-04-08T06:37:07.273Z,99558.59
2023-04-08T06:39:36.406Z,99561.13
2023-04-08T06:42:06.584Z,99554.03
2023-04-08T06:44:45.577Z,99561.88
2023-04-08T06:47:14.860Z,99558.28
2023-04-08T06:49:43.670Z,99558.03
2023-04-08T06:52:14.336Z,99560.66
2023-04-08T06:54:44.086Z,99573.09
2023-04-08T06:57:14.108Z,99568.03
2023-04-08T06:59:43.145Z,99566.97
2023-04-08T07:02:11.817Z,99568.03
2023-04-08T07:04:40.981Z,99574.09
2023-04-08T07:07:09.611Z,99573.59
2023-04-08T07:09:38.544Z,99586.31
2023-04-08T07:12:07.508Z,99581.72
2023-04-08T07:14:37.779Z,99580.72
2023-04-08T07:17:06.917Z,99582.19
2023-04-08T07:19:36.101Z,99574.00
2023-04-08T07:22:04.782Z,99574.13
2023-04-08T07:24:34.426Z,99583.13
2023-04-08T07:27:03.122Z,99580.19
2023-04-08T07:29:32.368Z,99578.50
2023-04-08T07:32:02.445Z,99589.19
2023-04-08T07:34:31.927Z,99590.13
2023-04-08T07:37:00.503Z,99596.78
2023-04-08T07:39:29.552Z,99593.81
2023-04-08T07:41:58.151Z,99597.72
2023-04-08T07:44:27.044Z,99596.28
2023-04-08T07:46:55.723Z,99595.81
2023-04-08T07:49:26.173Z,99590.31
2023-04-08T07:51:54.821Z,99600.34
2023-04-08T07:54:23.724Z,99604.38
2023-04-08T07:56:52.416Z,99600.00
2023-04-08T07:59:21.502Z,99596.44
2023-04-08T08:01:50.193Z,99594.97
2023-04-08T08:04:19.318Z,99598.25
2023-04-08T08:06:49.634Z,99599.06
2023-04-08T08:09:18.622Z,99600.63
2023-04-08T08:11:47.300Z,99601.88
2023-04-08T08:14:16.421Z,99603.41
2023-04-08T08:16:45.724Z,99602.22
2023-04-08T08:19:14.688Z,99599.22
2023-04-08T08:21:43.284Z,99607.09
2023-04-08T08:24:13.820Z,99601.47
2023-04-08T08:26:42.430Z,99598.06
2023-04-08T08:29:11.370Z,99605.13
2023-04-08T08:31:40.128Z,99604.81
2023-04-08T08:34:08.983Z,99602.91
2023-04-08T08:36:37.529Z,99604.28
2023-04-08T08:39:06.485Z,99607.84
2023-04-08T08:41:37.955Z,99605.06
2023-04-08T08:44:08.179Z,99605.06
2023-04-08T08:46:38.171Z,99615.06
2023-04-08T08:49:07.263Z,99607.31
2023-04-08T08:51:36.122Z,99611.31
2023-04-08T08:54:05.411Z,99605.91
2023-04-08T08:56:35.122Z,99609.78
2023-04-08T08:59:06.079Z,99610.69
2023-04-08T09:01:37.545Z,99618.63
2023-04-08T09:04:17.168Z,99614.09
2023-04-08T09:06:47.829Z,99618.00
2023-04-08T09:09:17.032Z,99614.56
2023-04-08T09:11:48.136Z,99619.81
2023-04-08T09:14:23.358Z,99620.72
2023-04-08T09:16:52.642Z,99615.44
2023-04-08T09:19:21.762Z,99612.09
2023-04-08T09:22:06.481Z,99619.94
2023-04-08T09:24:37.298Z,99617.88
2023-04-08T09:27:06.686Z,99619.47
2023-04-08T09:29:39.778Z,99627.31
2023-04-08T09:32:08.872Z,99627.97
2023-04-08T09:34:37.823Z,99625.72
2023-04-08T09:37:07.297Z,99624.59
2023-04-08T09:39:36.288Z,99633.94
2023-04-08T09:42:10.177Z,99641.41
2023-04-08T09:44:42.944Z,99633.91
2023-04-08T09:47:19.852Z,99642.03
2023-04-08T09:49:56.462Z,99644.56
2023-04-08T09:52:31.767Z,99647.03
2023-04-08T09:55:04.550Z,99641.63
2023-04-08T09:57:41.797Z,99641.63
2023-04-08T10:00:15.180Z,99634.50
2023-04-08T10:02:56.535Z,99631.81
2023-04-08T10:05:26.750Z,99635.41
2023-04-08T10:07:57.889Z,99648.88
2023-04-08T10:10:27.701Z,99635.66
2023-04-08T10:12:56.864Z,99638.91
2023-04-08T10:15:29.470Z,99635.31
2023-04-08T10:18:34.524Z,99633.50
2023-04-08T10:21:03.694Z,99639.53
2023-04-08T10:23:59.387Z,99635.78
2023-04-08T10:26:33.634Z,99640.66
2023-04-08T10:29:34.007Z,99625.00
2023-04-08T10:32:04.802Z,99640.50
2023-04-08T10:34:33.561Z,99635.25
2023-04-08T10:37:03.837Z,99639.88
2023-04-08T10:39:33.208Z,99637.94
2023-04-08T10:42:04.175Z,99637.38
2023-04-08T10:44:32.747Z,99642.84
2023-04-08T10:47:01.927Z,99638.88
2023-04-08T10:49:37.144Z,99645.00
2023-04-08T10:52:09.241Z,99642.78
2023-04-08T10:54:39.566Z,99639.13
2023-04-08T10:57:09.088Z,99642.56
2023-04-08T10:59:39.877Z,99647.06
2023-04-08T11:02:15.230Z,99648.84
2023-04-08T11:04:47.809Z,99640.94
2023-04-08T11:07:17.557Z,99644.69
2023-04-08T11:09:46.163Z,99644.81
2023-04-08T11:12:18.918Z,99643.91
2023-04-08T11:14:49.595Z,99654.72
2023-04-08T11:17:18.730Z,99649.16
2023-04-08T11:19:49.198Z,99642.34
2023-04-08T11:22:18.631Z,99654.50
2023-04-08T11:24:47.748Z,99655.16
2023-04-08T11:27:17.454Z,99651.47
2023-04-08T11:29:46.430Z,99651.53
2023-04-08T11:32:16.340Z,99643.28
2023-04-08T11:34:44.949Z,99644.78
2023-04-08T11:37:15.237Z,99640.81
2023-04-08T11:39:44.679Z,99636.91
2023-04-08T11:42:28.082Z,99638.81
2023-04-08T11:44:57.130Z,99640.84
2023-04-08T11:47:33.571Z,99642.19
2023-04-08T11:50:02.735Z,99652.16
2023-04-08T11:52:47.366Z,99646.13
2023-04-08T11:55:25.167Z,99639.34
2023-04-08T11:57:54.741Z,99636.25
2023-04-08T12:00:25.014Z,99629.59
2023-04-08T12:02:54.256Z,99632.66
2023-04-08T12:05:22.880Z,99629.06
2023-04-08T12:07:53.373Z,99626.50
2023-04-08T12:10:22.064Z,99630.22
2023-04-08T12:12:51.528Z,99628.75
2023-04-08T12:15:20.307Z,99628.63
2023-04-08T12:17:49.463Z,99619.84
2023-04-08T12:20:18.716Z,99619.84
2023-04-08T12:22:47.746Z,99622.31
2023-04-08T12:25:17.715Z,99618.69
2023-04-08T12:27:46.942Z,99617.81
2023-04-08T12:30:16.619Z,99618.09
2023-04-08T12:32:47.779Z,99619.06
2023-04-08T12:35:16.452Z,99611.13
2023-04-08T12:37:45.758Z,99618.25
2023-04-08T12:40:15.467Z,99615.22
2023-04-08T12:42:46.367Z,99600.13
2023-04-08T12:45:15.022Z,99605.84
2023-04-08T12:47:43.976Z,99600.22
2023-04-08T12:50:12.633Z,99605.78
2023-04-08T12:52:41.657Z,99606.66
2023-04-08T12:55:11.244Z,99609.66
2023-04-08T12:57:40.138Z,99604.81
2023-04-08T13:00:12.158Z,99598.69
2023-04-08T13:02:42.235Z,99593.72
2023-04-08T13:05:11.363Z,99598.81
2023-04-08T13:07:40.566Z,99594.03
2023-04-08T13:10:11.345Z,99591.94
2023-04-08T13:12:40.478Z,99592.94
2023-04-08T13:15:12.083Z,99580.81
2023-04-08T13:17:42.234Z,99588.59
2023-04-08T13:20:11.792Z,99591.06
2023-04-08T13:22:41.503Z,99586.41
2023-04-08T13:25:10.551Z,99594.19
2023-04-08T13:27:39.726Z,99589.72
2023-04-08T13:30:11.389Z,99583.38
2023-04-08T13:32:40.377Z,99584.31
2023-04-08T13:35:09.733Z,99586.38
2023-04-08T13:37:38.949Z,99586.25
2023-04-08T13:40:08.827Z,99589.34
2023-04-08T13:42:38.298Z,99587.16
2023-04-08T13:45:08.004Z,99584.81
2023-04-08T13:47:38.889Z,99588.44
2023-04-08T13:50:08.643Z,99584.19
2023-04-08T13:52:37.465Z,99583.25
2023-04-08T13:55:06.927Z,99582.34
2023-04-08T13:57:35.931Z,99582.13
2023-04-08T14:00:05.094Z,99583.91
2023-04-08T14:02:40.550Z,99577.06
2023-04-08T14:05:09.919Z,99585.66
2023-04-08T14:07:38.837Z,99580.63
2023-04-08T14:10:08.844Z,99587.53
2023-04-08T14:12:37.710Z,99575.22
2023-04-08T14:15:07.181Z,99582.25
2023-04-08T14:17:36.362Z,99581.31
2023-04-08T14:20:07.711Z,99576.03
2023-04-08T14:22:36.603Z,99580.69
2023-04-08T14:25:05.475Z,99579.75
2023-04-08T14:27:34.324Z,99579.75
2023-04-08T14:30:03.357Z,99577.34
2023-04-08T14:32:32.331Z,99572.88
2023-04-08T14:35:00.850Z,99578.91
2023-04-08T14:37:31.245Z,99581.66
2023-04-08T14:39:59.756Z,99579.25
2023-04-08T14:42:28.519Z,99572.97
2023-04-08T14:44:57.586Z,99562.44
2023-04-08T14:47:26.576Z,99577.59
2023-04-08T14:49:55.094Z,99569.50
2023-04-08T14:52:24.922Z,99572.50
2023-04-08T14:54:54.877Z,99574.50
2023-04-08T14:57:23.589Z,99576.41
2023-04-08T14:59:52.415Z,99568.91
2023-04-08T15:02:21.459Z,99572.69
2023-04-08T15:04:50.225Z,99570.84
2023-04-08T15:07:19.056Z,99573.28
2023-04-08T15:09:47.797Z,99575.28
2023-04-08T15:12:17.925Z,99569.06
2023-04-08T15:14:46.458Z,99577.34
2023-04-08T15:17:15.662Z,99570.66
2023-04-08T15:19:44.294Z,99573.53
2023-04-08T15:22:13.130Z,99572.50
2023-04-08T15:24:42.618Z,99565.22
2023-04-08T15:27:11.794Z,99569.72
2023-04-08T15:29:41.951Z,99567.44
2023-04-08T15:32:11.442Z,99567.63
2023-04-08T15:34:39.936Z,99569.28
2023-04-08T15:37:08.829Z,99573.41
2023-04-08T15:39:37.496Z,99570.44
2023-04-08T15:42:06.389Z,99571.63
2023-04-08T15:44:35.221Z,99579.34
2023-04-08T15:47:05.562Z,99582.53
2023-04-08T15:49:34.170Z,99583.91
2023-04-08T15:52:03.052Z,99587.06
2023-04-08T15:54:32.201Z,99581.44
2023-04-08T15:57:02.587Z,99588.25
2023-04-08T15:59:31.587Z,99589.47
2023-04-08T16:02:00.519Z,99584.31
2023-04-08T16:04:30.886Z,99588.16
2023-04-08T16:06:59.746Z,99591.81
2023-04-08T16:09:28.444Z,99584.59
2023-04-08T16:11:57.399Z,99591.91
2023-04-08T16:14:26.092Z,99590.31
2023-04-08T16:16:54.877Z,99589.53
2023-04-08T16:19:23.502Z,99590.22
2023-04-08T16:21:53.791Z,99590.25
2023-04-08T16:24:23.094Z,99598.06
2023-04-08T16:26:51.953Z,99597.47
2023-04-08T16:29:20.521Z,99598.72
2023-04-08T16:31:49.957Z,99601.84
2023-04-08T16:34:19.899Z,99606.16
2023-04-08T16:36:48.678Z,99602.72
2023-04-08T16:39:18.509Z,99606.06
2023-04-08T16:41:47.819Z,99606.09
2023-04-08T16:44:16.329Z,99610.63
2023-04-08T16:46:45.145Z,99620.97
2023-04-08T16:49:15.538Z,99618.00
2023-04-08T16:51:45.734Z,99602.50
2023-04-08T16:54:14.234Z,99614.00
2023-04-08T16:56:45.732Z,99617.50
2023-04-08T16:59:14.619Z,99619.34
2023-04-08T17:01:43.479Z,99621.63
2023-04-08T17:04:12.011Z,99617.53
2023-04-08T17:06:42.375Z,99621.97
2023-04-08T17:09:11.633Z,99625.09
2023-04-08T17:11:40.410Z,99623.63
2023-04-08T17:14:10.522Z,99622.91
2023-04-08T17:16:39.492Z,99628.13
2023-04-08T17:19:07.902Z,99630.81
2023-04-08T17:21:36.945Z,99635.91
2023-04-08T17:24:05.453Z,99636.09
2023-04-08T17:26:34.168Z,99642.94
2023-04-08T17:29:03.085Z,99647.34
2023-04-08T17:31:33.308Z,99646.47
2023-04-08T17:34:01.836Z,99644.88
2023-04-08T17:36:31.428Z,99654.44
2023-04-08T17:38:59.959Z,99653.72
2023-04-08T17:41:39.025Z,99660.81
2023-04-08T17:44:08.655Z,99665.16
2023-04-08T17:46:38.942Z,99667.78
2023-04-08T17:49:07.484Z,99669.41
2023-04-08T17:51:36.217Z,99670.25
2023-04-08T17:54:05.074Z,99677.31
2023-04-08T17:56:34.440Z,99678.06
2023-04-08T17:59:02.953Z,99674.78
2023-04-08T18:01:31.952Z,99678.53
2023-04-08T18:04:02.223Z,99682.81
2023-04-08T18:06:32.581Z,99684.53
2023-04-08T18:09:01.098Z,99695.22
2023-04-08T18:11:29.924Z,99694.28
2023-04-08T18:13:58.673Z,99703.78
2023-04-08T18:16:27.564Z,99694.28
2023-04-08T18:18:56.010Z,99702.25
2023-04-08T18:21:27.203Z,99699.81
2023-04-08T18:23:55.877Z,99704.97
2023-04-08T18:26:24.924Z,99705.22
2023-04-08T18:28:53.463Z,99707.84
2023-04-08T18:31:22.460Z,99716.78
2023-04-08T18:33:51.640Z,99709.03
2023-04-08T18:36:22.432Z,99715.97
2023-04-08T18:38:52.508Z,99716.78
2023-04-08T18:41:23.918Z,99712.78
2023-04-08T18:43:53.006Z,99724.84
2023-04-08T18:46:22.948Z,99724.94
2023-04-08T18:48:51.707Z,99725.78
2023-04-08T18:51:20.815Z,99719.66
2023-04-08T18:53:49.972Z,99719.69
2023-04-08T18:56:22.306Z,99723.16
2023-04-08T18:58:51.426Z,99719.66
2023-04-08T19:01:20.204Z,99722.63
2023-04-08T19:03:48.969Z,99727.13
2023-04-08T19:06:21.002Z,99727.88
2023-04-08T19:08:49.672Z,99729.75
2023-04-08T19:11:18.538Z,99727.16
2023-04-08T19:13:48.687Z,99734.16
2023-04-08T19:16:17.604Z,99729.78
2023-04-08T19:18:46.225Z,99723.56
2023-04-08T19:21:15.179Z,99728.72
2023-04-08T19:23:44.248Z,99726.28
2023-04-08T19:26:13.414Z,99730.59
2023-04-08T19:28:42.049Z,99725.53
2023-04-08T19:31:17.605Z,99728.00
2023-04-08T19:33:46.043Z,99725.56
2023-04-08T19:36:15.048Z,99723.84
2023-04-08T19:38:43.535Z,99729.13
2023-04-08T19:41:12.275Z,99722.16
2023-04-08T19:43:40.754Z,99728.44
2023-04-08T19:46:11.588Z,99728.47
2023-04-08T19:48:41.576Z,99735.59
2023-04-08T19:51:15.926Z,99735.50
2023-04-08T19:53:44.497Z,99740.97
2023-04-08T19:56:13.774Z,99730.59
2023-04-08T19:58:42.323Z,99736.59
2023-04-08T20:01:14.085Z,99730.44
2023-04-08T20:03:50.011Z,99739.97
2023-04-08T20:06:20.057Z,99734.97
2023-04-08T20:08:50.417Z,99741.97
2023-04-08T20:11:19.773Z,99726.19
2023-04-08T20:13:50.027Z,99729.72
2023-04-08T20:16:18.968Z,99725.31
2023-04-08T20:18:49.168Z,99728.88
2023-04-08T20:21:18.276Z,99734.06
2023-04-08T20:23:47.305Z,99728.81
2023-04-08T20:26:16.879Z,99720.84
2023-04-08T20:28:46.151Z,99731.25
2023-04-08T20:31:16.111Z,99728.63
2023-04-08T20:33:45.575Z,99737.34
2023-04-08T20:36:15.882Z,99741.66
2023-04-08T20:38:44.322Z,99738.16
2023-04-08T20:41:13.065Z,99740.75
2023-04-08T20:43:41.614Z,99742.44
2023-04-08T20:46:10.569Z,99737.50
2023-04-08T20:48:39.355Z,99743.75
2023-04-08T20:51:08.220Z,99737.72
2023-04-08T20:53:38.145Z,99747.38
2023-04-08T20:56:07.821Z,99748.22
2023-04-08T20:58:36.587Z,99751.63
2023-04-08T21:01:05.961Z,99755.09
2023-04-08T21:03:34.658Z,99768.28
2023-04-08T21:06:03.783Z,99770.06
2023-04-08T21:08:32.265Z,99755.19
2023-04-08T21:11:02.556Z,99759.50
2023-04-08T21:13:31.053Z,99765.56
2023-04-08T21:15:59.924Z,99762.94
2023-04-08T21:18:28.459Z,99767.25
2023-04-08T21:20:57.303Z,99767.25
2023-04-08T21:23:26.135Z,99767.25
2023-04-08T21:25:54.986Z,99765.50
2023-04-08T21:28:24.899Z,99761.09
2023-04-08T21:30:54.862Z,99762.88
2023-04-08T21:33:23.508Z,99765.50
2023-04-08T21:35:52.584Z,99760.25
2023-04-08T21:38:21.187Z,99764.63
2023-04-08T21:40:50.070Z,99761.16
2023-04-08T21:43:18.768Z,99759.41
2023-04-08T21:45:49.090Z,99767.28
2023-04-08T21:48:17.726Z,99765.56
2023-04-08T21:50:46.715Z,99763.84
2023-04-08T21:53:15.645Z,99763.03
2023-04-08T21:55:44.642Z,99757.84
2023-04-08T21:58:13.225Z,99754.31
2023-04-08T22:00:42.090Z,99757.84
2023-04-08T22:03:12.377Z,99757.84
2023-04-08T22:05:41.518Z,99759.59
2023-04-08T22:08:10.126Z,99753.47
2023-04-08T22:10:39.040Z,99757.88
2023-04-08T22:13:07.763Z,99767.50
2023-04-08T22:15:36.650Z,99764.03
2023-04-08T22:18:05.907Z,99762.25
2023-04-08T22:20:36.614Z,99764.03
2023-04-08T22:23:05.362Z,99762.28
2023-04-08T22:25:34.265Z,99763.19
2023-04-08T22:28:02.899Z,99753.63
2023-04-08T22:30:31.915Z,99759.78
2023-04-08T22:33:00.610Z,99759.78
2023-04-08T22:35:29.758Z,99763.25
2023-04-08T22:37:59.808Z,99764.16
2023-04-08T22:40:28.930Z,99758.97
2023-04-08T22:42:57.524Z,99760.69
2023-04-08T22:45:26.476Z,99763.31
2023-04-08T22:47:55.595Z,99755.50
2023-04-08T22:50:24.650Z,99755.50
2023-04-08T22:52:53.363Z,99754.66
2023-04-08T22:55:23.598Z,99751.16
2023-04-08T22:57:52.155Z,99752.94
2023-04-08T23:00:21.261Z,99748.56
2023-04-08T23:02:49.890Z,99750.34
2023-04-08T23:05:18.906Z,99754.72
2023-04-08T23:07:47.451Z,99754.69
2023-04-08T23:10:16.377Z,99753.84
2023-04-08T23:12:46.454Z,99764.31
2023-04-08T23:15:15.494Z,99752.13
2023-04-08T23:17:44.152Z,99756.47
2023-04-08T23:20:13.880Z,99753.00
2023-04-08T23:22:42.605Z,99750.41
2023-04-08T23:25:11.766Z,99753.91
2023-04-08T23:27:40.427Z,99748.72
2023-04-08T23:30:11.847Z,99748.66
2023-04-08T23:32:40.405Z,99750.44
2023-04-08T23:35:09.996Z,99750.44
2023-04-08T23:37:38.582Z,99752.19
2023-04-08T23:40:09.277Z,99747.91
2023-04-08T23:42:37.839Z,99749.66
2023-04-08T23:45:07.380Z,99747.94
2023-04-08T23:47:37.542Z,99753.16
2023-04-08T23:50:07.662Z,99747.06
2023-04-08T23:52:36.687Z,99748.84
2023-04-08T23:55:06.155Z,99748.84
2023-04-08T23:57:34.762Z,99747.94
